FNHU/NOV METAR and TAF weather

Enter ICAO airport designator
Station Type Date Time Source
FNHU METAR 2019/10/16 16:00 UTC NOAA

FNHU 161600Z 07008KT 9999 FEW030 27/12 Q1019


Station Type Date Time Source
FNHU Decoded METAR 2019/10/16 16:00 UTC NOAA

Huambo Nova Lisboa , Angola (FNHU) 12-48S 015-45E 1701M
Oct 16, 2019 - 12:00 PM EDT / 2019.10.16 1600 UTC
Wind: from the ENE (070 degrees) at 9 MPH (8 KT):0
Visibility: greater than 7 mile(s):0
Sky conditions: mostly clear
Temperature: 80 F (27 C)
Dew Point: 53 F (12 C)
Relative Humidity: 39%
Pressure (altimeter): 30.09 in. Hg (1019 hPa)
ob: FNHU 161600Z 07008KT 9999 FEW030 27/12 Q1019
cycle: 16

Station Type Date Time Source
FNHU TAF 2019/10/16 12:45 UTC NOAA

TAF FNHU 161045Z 1612/1624 09010KT 999 FEW015 SCT030 PROB30
TEMPO 1613/1617 5000 TSRA SCT016 FEW023CB BKN030

Example: see airport list